Pacific Dawn — 2AGH7 — position and weather

sailwx.info

Track history (hours):
 
Tides and Currents Weather Stations Pressure Air Temp Water Temp Dewpoint Dewpoint Depression Visibility Wind Speed Wind Dir Waves Ship Positions

Pacific Dawn

Last reported at 2020-Sep-25 15:00 UTC. Time now 2020-Sep-25 17:04 UTC.
Position N 34°24' E 033°18'.

Length 245 m; draft 8.2 m.

Type: Passenger vessel. MMSI: 235059368.

Wind from 270 at 30 knots

Barometer 1008.0 mb
Air temperature 26.0 ° C
Visibility: greater than 10.8 NM
Dewpoint 23.1 ° C
Water temperature 28.0 ° C

Date/timePositionNaut miles runAvg speedWind from/ knotsBaromVisibWave heightAir tempDewpointWater temp
2020-Sep-25 15:00N 34°24' E 033°18'4 8.8 270 / 301008.010.8 26.023.128.0
2020-Sep-25 14:30N 34°28' E 033°19'2 3.3
2020-Sep-25 14:00N 34°30' E 033°18'5 9.9
2020-Sep-25 13:31N 34°34' E 033°15'9 1.7
2020-Sep-25 08:19N 34°41' E 033°10'0 0.0
2020-Sep-25 07:30N 34°41' E 033°10'0 0.1
2020-Sep-25 06:59N 34°41' E 033°10'0 0.0
2020-Sep-25 05:55N 34°41' E 033°10'9 4.8
2020-Sep-25 04:00N 34°37' E 033°20'5 1.5
2020-Sep-25 00:30N 34°32' E 033°23'6 0.8
2020-Sep-24 17:00N 34°27' E 033°20'1 0.6
2020-Sep-24 16:00N 34°26' E 033°21'1 1.5
2020-Sep-24 15:30N 34°27' E 033°20'3 6.6
2020-Sep-24 15:00N 34°24' E 033°18'5 5.2 280 / 201011.210.8 27.022.628.0
2020-Sep-24 14:00N 34°29' E 033°19'14 2.1
2020-Sep-24 07:27N 34°41' E 033°10'0 0.0
2020-Sep-24 06:30N 34°41' E 033°10'0 0.1
2020-Sep-24 05:30N 34°41' E 033°10'20 7.9
2020-Sep-24 02:58N 34°24' E 033°23'0 0.8
2020-Sep-24 02:25N 34°25' E 033°23'0 0.9
2020-Sep-24 02:00N 34°25' E 033°23'4 3.8
2020-Sep-24 01:00N 34°24' E 033°18'0 0.0 290 / 261010.710.8 27.022.629.0
2020-Sep-24 00:00N 34°24' E 033°18'12 4.8 290 / 261010.410.8 27.022.629.0
2020-Sep-23 21:30N 34°35' E 033°24'2 1.5
2020-Sep-23 20:00N 34°37' E 033°25'1 0.9
2020-Sep-23 19:25N 34°36' E 033°25'0 1.3
2020-Sep-23 19:24N 34°36' E 033°25'1 1.3
2020-Sep-23 19:00N 34°36' E 033°25'7 1.8
2020-Sep-23 15:00N 34°30' E 033°19'2 1.8
2020-Sep-23 14:00N 34°29' E 033°18'15 6.8
2020-Sep-23 11:51N 34°17' E 033°08'910.4
2020-Sep-23 10:59N 34°17' E 032°57'510.5
2020-Sep-23 10:30N 34°17' E 032°50'13 5.2
2020-Sep-23 08:00N 34°12' E 032°36'44 7.1 280 / 241013.210.8 26.023.129.0
2020-Sep-23 01:46N 34°14' E 033°29'5 2.6
2020-Sep-23 00:00N 34°12' E 033°24'5 4.8 280 / 241011.810.8 27.022.628.7
2020-Sep-22 22:51N 34°17' E 033°28'10 1.5
2020-Sep-22 16:30N 34°25' E 033°22'1 1.8
2020-Sep-22 16:00N 34°26' E 033°21'1 1.9
2020-Sep-22 15:30N 34°26' E 033°20'17 4.8
2020-Sep-22 11:59N 34°41' E 033°10'6 6.3
2020-Sep-22 11:00N 34°36' E 033°06'6428.6 200 / 61012.810.8 28.023.729.0
2020-Sep-22 10:59N 34°41' E 033°10'0 0.0
2020-Sep-22 09:59N 34°41' E 033°10'0 0.0
2020-Sep-22 09:29N 34°41' E 033°10'0 0.0
2020-Sep-22 07:59N 34°41' E 033°10'0 0.0
2020-Sep-22 07:29N 34°41' E 033°10'0 0.0
2020-Sep-22 06:56N 34°41' E 033°10'6 3.2
2020-Sep-22 05:00N 34°36' E 033°06'6434.8 010 / 31012.610.8 27.024.128.8
2020-Sep-22 04:59N 34°41' E 033°10'0 0.0
2020-Sep-22 03:59N 34°41' E 033°10'0 0.0
2020-Sep-22 03:29N 34°41' E 033°10'6 1.8
2020-Sep-22 00:00N 34°36' E 033°06'6 5.8 340 / 31011.510.8 24.021.028.0
2020-Sep-21 22:56N 34°41' E 033°10'0 0.0
2020-Sep-21 21:59N 34°41' E 033°10'0 0.0
2020-Sep-21 21:26N 34°41' E 033°10'0 0.0
2020-Sep-21 20:29N 34°41' E 033°10'0 0.0
2020-Sep-21 17:29N 34°41' E 033°10'6 4.2
2020-Sep-21 16:00N 34°36' E 033°06'654.2 260 / 251010.010.8 26.024.628.0
2020-Sep-21 15:53N 34°41' E 033°10'0 0.0
2020-Sep-21 13:59N 34°41' E 033°10'0 0.0
2020-Sep-21 10:29N 34°41' E 033°10'0 0.0
2020-Sep-21 08:29N 34°41' E 033°10'0 0.0
2020-Sep-21 07:29N 34°41' E 033°10'0 0.0
2020-Sep-21 05:29N 34°41' E 033°10'27 6.1
2020-Sep-21 01:00N 34°24' E 033°36'3 5.1 250 / 101009.210.8 25.022.029.0
2020-Sep-21 00:22N 34°27' E 033°38'7 1.4
2020-Sep-20 19:30N 34°27' E 033°30'1 1.8
2020-Sep-20 19:00N 34°28' E 033°29'2 1.9
2020-Sep-20 18:00N 34°29' E 033°28'1 2.0
2020-Sep-20 17:30N 34°30' E 033°27'1 2.0
2020-Sep-20 17:00N 34°30' E 033°26'1 2.1
2020-Sep-20 16:30N 34°31' E 033°25'1 2.1
2020-Sep-20 16:00N 34°32' E 033°24'2125.5
2020-Sep-20 16:00N 34°30' E 033°24'4 2.5 260 / 201008.3 5.4 26.023.129.0
2020-Sep-20 14:30N 34°33' E 033°21'3 1.7
2020-Sep-20 12:30N 34°31' E 033°18'1 2.3
2020-Sep-20 12:00N 34°30' E 033°17'5 9.3
2020-Sep-20 11:31N 34°25' E 033°17'29 9.5
2020-Sep-20 08:28N 33°56' E 033°14'15 9.1
2020-Sep-20 06:49N 33°41' E 033°13'23 6.0
2020-Sep-20 03:00N 33°18' E 033°12'6 2.0 350 / 221009.610.8 28.025.229.0
2020-Sep-20 00:00N 33°24' E 033°12'314.0 340 / 261009.310.8 27.022.629.0
2020-Sep-19 23:46N 33°26' E 033°15'5 1.5
2020-Sep-19 20:30N 33°31' E 033°15'2 1.4
2020-Sep-19 19:00N 33°33' E 033°15'2 1.5
2020-Sep-19 17:30N 33°35' E 033°15'1 1.4
2020-Sep-19 16:30N 33°36' E 033°14'2 3.7
2020-Sep-19 16:00N 33°36' E 033°12'4 1.9 290 / 141010.210.8 28.025.229.0
2020-Sep-19 13:51N 33°40' E 033°13'4 1.5
2020-Sep-19 11:00N 33°44' E 033°12'2 1.6
2020-Sep-19 10:00N 33°46' E 033°11'4 1.7
2020-Sep-19 07:30N 33°50' E 033°10'1 1.8
2020-Sep-19 07:00N 33°51' E 033°10'4 1.9
2020-Sep-19 05:00N 33°54' E 033°11'1 2.0
2020-Sep-19 04:30N 33°55' E 033°11'4 2.1
2020-Sep-19 02:23N 33°60' E 033°12'2 2.1
2020-Sep-19 01:30N 34°02' E 033°12'4 2.0
2020-Sep-18 23:30N 34°06' E 033°12'0 0.8
2020-Sep-18 23:00N 34°06' E 033°12'2 3.5 310 / 201011.510.8 27.025.629.0
2020-Sep-18 22:30N 34°08' E 033°11'6 2.3
2020-Sep-18 20:01N 34°13' E 033°11'3 2.6
2020-Sep-18 19:00N 34°16' E 033°11'2 2.5
2020-Sep-18 18:00N 34°18' E 033°11'22 7.4
2020-Sep-18 15:00N 34°41' E 033°10'1 0.4
2020-Sep-18 13:29N 34°41' E 033°10'612.4
2020-Sep-18 13:00N 34°36' E 033°06'6 2.4 120 / 61011.3 5.4 29.024.829.5
2020-Sep-18 10:29N 34°41' E 033°10'0 0.0
2020-Sep-18 07:29N 34°41' E 033°10'0 0.0
2020-Sep-18 07:00N 34°41' E 033°10'0 0.0
2020-Sep-18 05:00N 34°41' E 033°10'0 0.0
2020-Sep-18 03:00N 34°41' E 033°10'0 0.0
2020-Sep-18 01:30N 34°41' E 033°10'0 0.0
2020-Sep-18 01:00N 34°41' E 033°10'0 0.0
2020-Sep-17 19:30N 34°41' E 033°10'0 0.0
2020-Sep-17 17:00N 34°41' E 033°10'0 0.0
2020-Sep-17 15:30N 34°41' E 033°10'0 0.0
2020-Sep-17 14:27N 34°41' E 033°10'0 0.0
2020-Sep-17 12:00N 34°41' E 033°10'0 0.0
2020-Sep-17 08:00N 34°41' E 033°10'0 0.0
2020-Sep-17 07:30N 34°41' E 033°10'0 0.0
2020-Sep-17 07:00N 34°41' E 033°10'0 0.1
2020-Sep-17 06:31N 34°41' E 033°10'3 1.0
2020-Sep-17 03:30N 34°38' E 033°11'510.2
2020-Sep-17 03:00N 34°33' E 033°12'1510.0
2020-Sep-17 01:30N 34°19' E 033°17'5 9.8
2020-Sep-17 01:00N 34°14' E 033°18'5 9.4
2020-Sep-17 00:30N 34°09' E 033°20'4 8.1
2020-Sep-17 00:00N 34°05' E 033°21'2 2.2
2020-Sep-16 23:00N 34°06' E 033°18'3 1.0 270 / 141009.910.8 26.024.629.0
2020-Sep-16 20:28N 34°08' E 033°19'4 2.1
2020-Sep-16 18:30N 34°12' E 033°17'1 2.1
2020-Sep-16 17:56N 34°13' E 033°16'2 1.7
2020-Sep-16 17:01N 34°14' E 033°15'1 1.8
2020-Sep-16 16:30N 34°15' E 033°14'3 6.0
2020-Sep-16 16:00N 34°12' E 033°12'9 2.4 260 / 141009.0 5.4 28.025.229.0
2020-Sep-16 12:00N 34°20' E 033°07'21 4.2
2020-Sep-16 06:58N 34°41' E 033°10'0 0.0
2020-Sep-16 04:55N 34°41' E 033°10'0 0.0
2020-Sep-16 04:22N 34°41' E 033°10'0 0.3
2020-Sep-16 04:00N 34°41' E 033°10'9 8.7
2020-Sep-16 03:00N 34°33' E 033°13'29 9.7
2020-Sep-16 00:00N 34°04' E 033°18'0 0.4
2020-Sep-15 23:31N 34°04' E 033°18'611.9
2020-Sep-15 23:00N 34°00' E 033°12'713.5 270 / 131010.110.8 26.024.629.0
2020-Sep-15 22:31N 34°05' E 033°17'2 1.0
2020-Sep-15 20:30N 34°07' E 033°17'7 1.9
2020-Sep-15 17:00N 34°12' E 033°12'   270 / 151010.410.8 26.024.629.0
Track history (hours):
 
Tides and Currents Weather Stations Pressure Air Temp Water Temp Dewpoint Dewpoint Depression Visibility Wind Speed Wind Dir Waves Ship Positions

Pacific Dawn

Last reported at 2020-Sep-25 15:00 UTC. Time now 2020-Sep-25 17:04 UTC.
Position N 34°24' E 033°18'.

Length 245 m; draft 8.2 m.

Type: Passenger vessel. MMSI: 235059368.

Wind from 270 at 30 knots

Barometer 1008.0 mb
Air temperature 26.0 ° C
Visibility: greater than 10.8 NM
Dewpoint 23.1 ° C
Water temperature 28.0 ° C

Date/timePositionNaut miles runAvg speedWind from/ knotsBaromVisibWave heightAir tempDewpointWater temp
2020-Sep-25 15:00N 34°24' E 033°18'4 8.8 270 / 301008.010.8 26.023.128.0
2020-Sep-25 14:30N 34°28' E 033°19'2 3.3
2020-Sep-25 14:00N 34°30' E 033°18'5 9.9
2020-Sep-25 13:31N 34°34' E 033°15'9 1.7
2020-Sep-25 08:19N 34°41' E 033°10'0 0.0
2020-Sep-25 07:30N 34°41' E 033°10'0 0.1
2020-Sep-25 06:59N 34°41' E 033°10'0 0.0
2020-Sep-25 05:55N 34°41' E 033°10'9 4.8
2020-Sep-25 04:00N 34°37' E 033°20'5 1.5
2020-Sep-25 00:30N 34°32' E 033°23'6 0.8
2020-Sep-24 17:00N 34°27' E 033°20'1 0.6
2020-Sep-24 16:00N 34°26' E 033°21'1 1.5
2020-Sep-24 15:30N 34°27' E 033°20'3 6.6
2020-Sep-24 15:00N 34°24' E 033°18'5 5.2 280 / 201011.210.8 27.022.628.0
2020-Sep-24 14:00N 34°29' E 033°19'14 2.1
2020-Sep-24 07:27N 34°41' E 033°10'0 0.0
2020-Sep-24 06:30N 34°41' E 033°10'0 0.1
2020-Sep-24 05:30N 34°41' E 033°10'20 7.9
2020-Sep-24 02:58N 34°24' E 033°23'0 0.8
2020-Sep-24 02:25N 34°25' E 033°23'0 0.9
2020-Sep-24 02:00N 34°25' E 033°23'4 3.8
2020-Sep-24 01:00N 34°24' E 033°18'0 0.0 290 / 261010.710.8 27.022.629.0
2020-Sep-24 00:00N 34°24' E 033°18'12 4.8 290 / 261010.410.8 27.022.629.0
2020-Sep-23 21:30N 34°35' E 033°24'2 1.5
2020-Sep-23 20:00N 34°37' E 033°25'1 0.9
2020-Sep-23 19:25N 34°36' E 033°25'0 1.3
2020-Sep-23 19:24N 34°36' E 033°25'1 1.3
2020-Sep-23 19:00N 34°36' E 033°25'7 1.8
2020-Sep-23 15:00N 34°30' E 033°19'2 1.8
2020-Sep-23 14:00N 34°29' E 033°18'15 6.8
2020-Sep-23 11:51N 34°17' E 033°08'910.4
2020-Sep-23 10:59N 34°17' E 032°57'510.5
2020-Sep-23 10:30N 34°17' E 032°50'13 5.2
2020-Sep-23 08:00N 34°12' E 032°36'44 7.1 280 / 241013.210.8 26.023.129.0
2020-Sep-23 01:46N 34°14' E 033°29'5 2.6
2020-Sep-23 00:00N 34°12' E 033°24'5 4.8 280 / 241011.810.8 27.022.628.7
2020-Sep-22 22:51N 34°17' E 033°28'10 1.5
2020-Sep-22 16:30N 34°25' E 033°22'1 1.8
2020-Sep-22 16:00N 34°26' E 033°21'1 1.9
2020-Sep-22 15:30N 34°26' E 033°20'17 4.8
2020-Sep-22 11:59N 34°41' E 033°10'6 6.3
2020-Sep-22 11:00N 34°36' E 033°06'6428.6 200 / 61012.810.8 28.023.729.0
2020-Sep-22 10:59N 34°41' E 033°10'0 0.0
2020-Sep-22 09:59N 34°41' E 033°10'0 0.0
2020-Sep-22 09:29N 34°41' E 033°10'0 0.0
2020-Sep-22 07:59N 34°41' E 033°10'0 0.0
2020-Sep-22 07:29N 34°41' E 033°10'0 0.0
2020-Sep-22 06:56N 34°41' E 033°10'6 3.2
2020-Sep-22 05:00N 34°36' E 033°06'6434.8 010 / 31012.610.8 27.024.128.8
2020-Sep-22 04:59N 34°41' E 033°10'0 0.0
2020-Sep-22 03:59N 34°41' E 033°10'0 0.0
2020-Sep-22 03:29N 34°41' E 033°10'6 1.8
2020-Sep-22 00:00N 34°36' E 033°06'6 5.8 340 / 31011.510.8 24.021.028.0
2020-Sep-21 22:56N 34°41' E 033°10'0 0.0
2020-Sep-21 21:59N 34°41' E 033°10'0 0.0
2020-Sep-21 21:26N 34°41' E 033°10'0 0.0
2020-Sep-21 20:29N 34°41' E 033°10'0 0.0
2020-Sep-21 17:29N 34°41' E 033°10'6 4.2
2020-Sep-21 16:00N 34°36' E 033°06'654.2 260 / 251010.010.8 26.024.628.0
2020-Sep-21 15:53N 34°41' E 033°10'0 0.0
2020-Sep-21 13:59N 34°41' E 033°10'0 0.0
2020-Sep-21 10:29N 34°41' E 033°10'0 0.0
2020-Sep-21 08:29N 34°41' E 033°10'0 0.0
2020-Sep-21 07:29N 34°41' E 033°10'0 0.0
2020-Sep-21 05:29N 34°41' E 033°10'27 6.1
2020-Sep-21 01:00N 34°24' E 033°36'3 5.1 250 / 101009.210.8 25.022.029.0
2020-Sep-21 00:22N 34°27' E 033°38'7 1.4
2020-Sep-20 19:30N 34°27' E 033°30'1 1.8
2020-Sep-20 19:00N 34°28' E 033°29'2 1.9
2020-Sep-20 18:00N 34°29' E 033°28'1 2.0
2020-Sep-20 17:30N 34°30' E 033°27'1 2.0
2020-Sep-20 17:00N 34°30' E 033°26'1 2.1
2020-Sep-20 16:30N 34°31' E 033°25'1 2.1
2020-Sep-20 16:00N 34°32' E 033°24'2125.5
2020-Sep-20 16:00N 34°30' E 033°24'4 2.5 260 / 201008.3 5.4 26.023.129.0
2020-Sep-20 14:30N 34°33' E 033°21'3 1.7
2020-Sep-20 12:30N 34°31' E 033°18'1 2.3
2020-Sep-20 12:00N 34°30' E 033°17'5 9.3
2020-Sep-20 11:31N 34°25' E 033°17'29 9.5
2020-Sep-20 08:28N 33°56' E 033°14'15 9.1
2020-Sep-20 06:49N 33°41' E 033°13'23 6.0
2020-Sep-20 03:00N 33°18' E 033°12'6 2.0 350 / 221009.610.8 28.025.229.0
2020-Sep-20 00:00N 33°24' E 033°12'314.0 340 / 261009.310.8 27.022.629.0
2020-Sep-19 23:46N 33°26' E 033°15'5 1.5
2020-Sep-19 20:30N 33°31' E 033°15'2 1.4
2020-Sep-19 19:00N 33°33' E 033°15'2 1.5
2020-Sep-19 17:30N 33°35' E 033°15'1 1.4
2020-Sep-19 16:30N 33°36' E 033°14'2 3.7
2020-Sep-19 16:00N 33°36' E 033°12'4 1.9 290 / 141010.210.8 28.025.229.0
2020-Sep-19 13:51N 33°40' E 033°13'4 1.5
2020-Sep-19 11:00N 33°44' E 033°12'2 1.6
2020-Sep-19 10:00N 33°46' E 033°11'4 1.7
2020-Sep-19 07:30N 33°50' E 033°10'1 1.8
2020-Sep-19 07:00N 33°51' E 033°10'4 1.9
2020-Sep-19 05:00N 33°54' E 033°11'1 2.0
2020-Sep-19 04:30N 33°55' E 033°11'4 2.1
2020-Sep-19 02:23N 33°60' E 033°12'2 2.1
2020-Sep-19 01:30N 34°02' E 033°12'4 2.0
2020-Sep-18 23:30N 34°06' E 033°12'0 0.8
2020-Sep-18 23:00N 34°06' E 033°12'2 3.5 310 / 201011.510.8 27.025.629.0
2020-Sep-18 22:30N 34°08' E 033°11'6 2.3
2020-Sep-18 20:01N 34°13' E 033°11'3 2.6
2020-Sep-18 19:00N 34°16' E 033°11'2 2.5
2020-Sep-18 18:00N 34°18' E 033°11'22 7.4
2020-Sep-18 15:00N 34°41' E 033°10'1 0.4
2020-Sep-18 13:29N 34°41' E 033°10'612.4
2020-Sep-18 13:00N 34°36' E 033°06'6 2.4 120 / 61011.3 5.4 29.024.829.5
2020-Sep-18 10:29N 34°41' E 033°10'0 0.0
2020-Sep-18 07:29N 34°41' E 033°10'0 0.0
2020-Sep-18 07:00N 34°41' E 033°10'0 0.0
2020-Sep-18 05:00N 34°41' E 033°10'0 0.0
2020-Sep-18 03:00N 34°41' E 033°10'0 0.0
2020-Sep-18 01:30N 34°41' E 033°10'0 0.0
2020-Sep-18 01:00N 34°41' E 033°10'0 0.0
2020-Sep-17 19:30N 34°41' E 033°10'0 0.0
2020-Sep-17 17:00N 34°41' E 033°10'0 0.0
2020-Sep-17 15:30N 34°41' E 033°10'0 0.0
2020-Sep-17 14:27N 34°41' E 033°10'0 0.0
2020-Sep-17 12:00N 34°41' E 033°10'0 0.0
2020-Sep-17 08:00N 34°41' E 033°10'0 0.0
2020-Sep-17 07:30N 34°41' E 033°10'0 0.0
2020-Sep-17 07:00N 34°41' E 033°10'0 0.1
2020-Sep-17 06:31N 34°41' E 033°10'3 1.0
2020-Sep-17 03:30N 34°38' E 033°11'510.2
2020-Sep-17 03:00N 34°33' E 033°12'1510.0
2020-Sep-17 01:30N 34°19' E 033°17'5 9.8
2020-Sep-17 01:00N 34°14' E 033°18'5 9.4
2020-Sep-17 00:30N 34°09' E 033°20'4 8.1
2020-Sep-17 00:00N 34°05' E 033°21'2 2.2
2020-Sep-16 23:00N 34°06' E 033°18'3 1.0 270 / 141009.910.8 26.024.629.0
2020-Sep-16 20:28N 34°08' E 033°19'4 2.1
2020-Sep-16 18:30N 34°12' E 033°17'1 2.1
2020-Sep-16 17:56N 34°13' E 033°16'2 1.7
2020-Sep-16 17:01N 34°14' E 033°15'1 1.8
2020-Sep-16 16:30N 34°15' E 033°14'3 6.0
2020-Sep-16 16:00N 34°12' E 033°12'9 2.4 260 / 141009.0 5.4 28.025.229.0
2020-Sep-16 12:00N 34°20' E 033°07'21 4.2
2020-Sep-16 06:58N 34°41' E 033°10'0 0.0
2020-Sep-16 04:55N 34°41' E 033°10'0 0.0
2020-Sep-16 04:22N 34°41' E 033°10'0 0.3
2020-Sep-16 04:00N 34°41' E 033°10'9 8.7
2020-Sep-16 03:00N 34°33' E 033°13'29 9.7
2020-Sep-16 00:00N 34°04' E 033°18'0 0.4
2020-Sep-15 23:31N 34°04' E 033°18'611.9
2020-Sep-15 23:00N 34°00' E 033°12'713.5 270 / 131010.110.8 26.024.629.0
2020-Sep-15 22:31N 34°05' E 033°17'2 1.0
2020-Sep-15 20:30N 34°07' E 033°17'7 1.9
2020-Sep-15 17:00N 34°12' E 033°12'   270 / 151010.410.8 26.024.629.0

Dump ship's entire track history